Firmament Ace — C6VP5 — position and weather

sailwx.info

Track history (hours):
 
Tides and Currents Weather Stations Pressure Air Temp Water Temp Dewpoint Dewpoint Depression Visibility Wind Speed Wind Dir Waves Ship Positions

Firmament Ace

Last reported at 2017-Dec-10 12:21 UTC. Time now 2017-Dec-17 16:05 UTC.
Position S 36°29' E 175°45'.

Length 200 m; beam 32.3 m.

Type: Cargo ship. MMSI: 309656000.

Date/timePositionNaut miles runAvg speedWind from/ knotsBaromVisibWave heightAir tempDewpointWater temp
2017-Dec-10 12:21S 36°29' E 175°45'1713.5
2017-Dec-10 11:05S 36°23' E 175°25'110.3
2017-Dec-10 10:58S 36°23' E 175°23'7 9.2
2017-Dec-10 10:12S 36°25' E 175°15'210.0
2017-Dec-10 10:00S 36°27' E 175°13'5 9.9
2017-Dec-10 09:30S 36°30' E 175°09'510.1
2017-Dec-10 09:00S 36°34' E 175°05'510.5
2017-Dec-10 08:30S 36°36' E 174°59'510.5
2017-Dec-10 08:00S 36°40' E 174°54'511.2
2017-Dec-10 07:30S 36°44' E 174°50'5 9.2
2017-Dec-10 07:00S 36°49' E 174°50'3 4.9
2017-Dec-10 06:22S 36°50' E 174°46'0 0.0
2017-Dec-10 05:58S 36°50' E 174°46'0 0.0
2017-Dec-10 05:28S 36°50' E 174°46'0 0.0
2017-Dec-10 04:58S 36°50' E 174°46'0 0.0
2017-Dec-10 04:28S 36°50' E 174°46'0 0.0
2017-Dec-10 03:58S 36°50' E 174°46'0 0.0
2017-Dec-10 03:22S 36°50' E 174°46'0 0.0
2017-Dec-10 02:58S 36°50' E 174°46'0 0.0
2017-Dec-10 02:28S 36°50' E 174°46'0 0.0
2017-Dec-10 01:58S 36°50' E 174°46'0 0.0
2017-Dec-10 01:28S 36°50' E 174°46'0 0.0
2017-Dec-10 00:52S 36°50' E 174°46'0 0.0
2017-Dec-10 00:28S 36°50' E 174°46'0 0.0
2017-Dec-09 23:58S 36°50' E 174°46'0 0.0
2017-Dec-09 23:22S 36°50' E 174°46'0 0.0
2017-Dec-09 22:58S 36°50' E 174°46'0 0.0
2017-Dec-09 22:28S 36°50' E 174°46'0 0.0
2017-Dec-09 21:58S 36°50' E 174°46'0 0.0
2017-Dec-09 21:22S 36°50' E 174°46'0 0.0
2017-Dec-09 20:16S 36°50' E 174°46'0 0.0
2017-Dec-09 19:46S 36°50' E 174°46'0 0.0
2017-Dec-09 19:29S 36°50' E 174°46'0 0.0
2017-Dec-09 19:00S 36°50' E 174°46'0 0.0
2017-Dec-09 18:30S 36°50' E 174°46'0 0.0
2017-Dec-09 18:00S 36°50' E 174°46'0 0.0
2017-Dec-09 17:30S 36°50' E 174°46'0 0.0
2017-Dec-09 17:00S 36°50' E 174°46'0 0.0
2017-Dec-09 16:30S 36°50' E 174°46'0 0.0
2017-Dec-09 16:00S 36°50' E 174°46'1 2.8
2017-Dec-09 15:30S 36°50' E 174°48'5 9.1
2017-Dec-09 15:00S 36°46' E 174°49'5 9.6
2017-Dec-09 14:30S 36°42' E 174°53'4 7.1
2017-Dec-09 14:00S 36°39' E 174°55'4 8.6
2017-Dec-09 13:30S 36°36' E 174°58'5 9.7
2017-Dec-09 13:00S 36°31' E 175°01'5 9.4
2017-Dec-09 12:30S 36°26' E 175°01'5 9.4
2017-Dec-09 12:00S 36°22' E 174°59'4 8.9
2017-Dec-09 11:30S 36°17' E 174°58'510.1
2017-Dec-09 11:00S 36°13' E 174°57'  
2017-Dec-04 09:35S 33°47' E 151°39'414.8
2017-Dec-04 09:17S 33°51' E 151°35'414.7
2017-Dec-04 08:59S 33°54' E 151°32'410 9.0
2017-Dec-02 11:25S 38°09' E 144°55'1118.0
2017-Dec-02 10:48S 37°58' E 144°55'614.3
2017-Dec-02 10:24S 37°52' E 144°56'2 3.1
2017-Dec-02 09:47S 37°51' E 144°54'0 0.0
2017-Dec-02 09:23S 37°51' E 144°54'0 0.0
2017-Dec-02 08:54S 37°51' E 144°54'0 0.0
2017-Dec-02 08:27S 37°51' E 144°54'0 0.0
2017-Dec-02 07:55S 37°51' E 144°54'0 0.0
2017-Dec-02 07:16S 37°51' E 144°54'0 0.0
2017-Dec-02 06:49S 37°51' E 144°54'0 0.0
2017-Dec-02 06:29S 37°51' E 144°54'0 0.0
2017-Dec-02 05:51S 37°51' E 144°54'0 0.0
2017-Dec-02 05:18S 37°51' E 144°54'0 0.0
2017-Dec-02 05:00S 37°51' E 144°54'0 0.0
2017-Dec-02 04:30S 37°51' E 144°54'0 0.0
2017-Dec-02 03:57S 37°51' E 144°54'0 0.0
2017-Dec-02 03:26S 37°51' E 144°54'0 0.0
2017-Dec-02 02:58S 37°51' E 144°54'0 0.0
2017-Dec-02 02:30S 37°51' E 144°54'0 0.0
2017-Dec-02 01:59S 37°51' E 144°54'0 0.0
2017-Dec-02 01:30S 37°51' E 144°54'0 0.0
2017-Dec-02 00:56S 37°51' E 144°54'0 0.0
2017-Dec-02 00:29S 37°51' E 144°54'0 0.0
2017-Dec-01 23:58S 37°51' E 144°54'0 0.0
2017-Dec-01 23:14S 37°51' E 144°54'0 0.0
2017-Dec-01 22:59S 37°51' E 144°54'0 0.0
2017-Dec-01 22:30S 37°51' E 144°54'0 0.0
2017-Dec-01 21:59S 37°51' E 144°54'0 0.0
2017-Dec-01 21:21S 37°51' E 144°54'0 1.2
2017-Dec-01 20:59S 37°51' E 144°55'3 5.8
2017-Dec-01 20:28S 37°54' E 144°56'511.1
2017-Dec-01 20:00S 37°59' E 144°55'  
Track history (hours):
 
Tides and Currents Weather Stations Pressure Air Temp Water Temp Dewpoint Dewpoint Depression Visibility Wind Speed Wind Dir Waves Ship Positions

Firmament Ace

Last reported at 2017-Dec-10 12:21 UTC. Time now 2017-Dec-17 16:05 UTC.
Position S 36°29' E 175°45'.

Length 200 m; beam 32.3 m.

Type: Cargo ship. MMSI: 309656000.

Date/timePositionNaut miles runAvg speedWind from/ knotsBaromVisibWave heightAir tempDewpointWater temp
2017-Dec-10 12:21S 36°29' E 175°45'1713.5
2017-Dec-10 11:05S 36°23' E 175°25'110.3
2017-Dec-10 10:58S 36°23' E 175°23'7 9.2
2017-Dec-10 10:12S 36°25' E 175°15'210.0
2017-Dec-10 10:00S 36°27' E 175°13'5 9.9
2017-Dec-10 09:30S 36°30' E 175°09'510.1
2017-Dec-10 09:00S 36°34' E 175°05'510.5
2017-Dec-10 08:30S 36°36' E 174°59'510.5
2017-Dec-10 08:00S 36°40' E 174°54'511.2
2017-Dec-10 07:30S 36°44' E 174°50'5 9.2
2017-Dec-10 07:00S 36°49' E 174°50'3 4.9
2017-Dec-10 06:22S 36°50' E 174°46'0 0.0
2017-Dec-10 05:58S 36°50' E 174°46'0 0.0
2017-Dec-10 05:28S 36°50' E 174°46'0 0.0
2017-Dec-10 04:58S 36°50' E 174°46'0 0.0
2017-Dec-10 04:28S 36°50' E 174°46'0 0.0
2017-Dec-10 03:58S 36°50' E 174°46'0 0.0
2017-Dec-10 03:22S 36°50' E 174°46'0 0.0
2017-Dec-10 02:58S 36°50' E 174°46'0 0.0
2017-Dec-10 02:28S 36°50' E 174°46'0 0.0
2017-Dec-10 01:58S 36°50' E 174°46'0 0.0
2017-Dec-10 01:28S 36°50' E 174°46'0 0.0
2017-Dec-10 00:52S 36°50' E 174°46'0 0.0
2017-Dec-10 00:28S 36°50' E 174°46'0 0.0
2017-Dec-09 23:58S 36°50' E 174°46'0 0.0
2017-Dec-09 23:22S 36°50' E 174°46'0 0.0
2017-Dec-09 22:58S 36°50' E 174°46'0 0.0
2017-Dec-09 22:28S 36°50' E 174°46'0 0.0
2017-Dec-09 21:58S 36°50' E 174°46'0 0.0
2017-Dec-09 21:22S 36°50' E 174°46'0 0.0
2017-Dec-09 20:16S 36°50' E 174°46'0 0.0
2017-Dec-09 19:46S 36°50' E 174°46'0 0.0
2017-Dec-09 19:29S 36°50' E 174°46'0 0.0
2017-Dec-09 19:00S 36°50' E 174°46'0 0.0
2017-Dec-09 18:30S 36°50' E 174°46'0 0.0
2017-Dec-09 18:00S 36°50' E 174°46'0 0.0
2017-Dec-09 17:30S 36°50' E 174°46'0 0.0
2017-Dec-09 17:00S 36°50' E 174°46'0 0.0
2017-Dec-09 16:30S 36°50' E 174°46'0 0.0
2017-Dec-09 16:00S 36°50' E 174°46'1 2.8
2017-Dec-09 15:30S 36°50' E 174°48'5 9.1
2017-Dec-09 15:00S 36°46' E 174°49'5 9.6
2017-Dec-09 14:30S 36°42' E 174°53'4 7.1
2017-Dec-09 14:00S 36°39' E 174°55'4 8.6
2017-Dec-09 13:30S 36°36' E 174°58'5 9.7
2017-Dec-09 13:00S 36°31' E 175°01'5 9.4
2017-Dec-09 12:30S 36°26' E 175°01'5 9.4
2017-Dec-09 12:00S 36°22' E 174°59'4 8.9
2017-Dec-09 11:30S 36°17' E 174°58'510.1
2017-Dec-09 11:00S 36°13' E 174°57'  
2017-Dec-04 09:35S 33°47' E 151°39'414.8
2017-Dec-04 09:17S 33°51' E 151°35'414.7
2017-Dec-04 08:59S 33°54' E 151°32'410 9.0
2017-Dec-02 11:25S 38°09' E 144°55'1118.0
2017-Dec-02 10:48S 37°58' E 144°55'614.3
2017-Dec-02 10:24S 37°52' E 144°56'2 3.1
2017-Dec-02 09:47S 37°51' E 144°54'0 0.0
2017-Dec-02 09:23S 37°51' E 144°54'0 0.0
2017-Dec-02 08:54S 37°51' E 144°54'0 0.0
2017-Dec-02 08:27S 37°51' E 144°54'0 0.0
2017-Dec-02 07:55S 37°51' E 144°54'0 0.0
2017-Dec-02 07:16S 37°51' E 144°54'0 0.0
2017-Dec-02 06:49S 37°51' E 144°54'0 0.0
2017-Dec-02 06:29S 37°51' E 144°54'0 0.0
2017-Dec-02 05:51S 37°51' E 144°54'0 0.0
2017-Dec-02 05:18S 37°51' E 144°54'0 0.0
2017-Dec-02 05:00S 37°51' E 144°54'0 0.0
2017-Dec-02 04:30S 37°51' E 144°54'0 0.0
2017-Dec-02 03:57S 37°51' E 144°54'0 0.0
2017-Dec-02 03:26S 37°51' E 144°54'0 0.0
2017-Dec-02 02:58S 37°51' E 144°54'0 0.0
2017-Dec-02 02:30S 37°51' E 144°54'0 0.0
2017-Dec-02 01:59S 37°51' E 144°54'0 0.0
2017-Dec-02 01:30S 37°51' E 144°54'0 0.0
2017-Dec-02 00:56S 37°51' E 144°54'0 0.0
2017-Dec-02 00:29S 37°51' E 144°54'0 0.0
2017-Dec-01 23:58S 37°51' E 144°54'0 0.0
2017-Dec-01 23:14S 37°51' E 144°54'0 0.0
2017-Dec-01 22:59S 37°51' E 144°54'0 0.0
2017-Dec-01 22:30S 37°51' E 144°54'0 0.0
2017-Dec-01 21:59S 37°51' E 144°54'0 0.0
2017-Dec-01 21:21S 37°51' E 144°54'0 1.2
2017-Dec-01 20:59S 37°51' E 144°55'3 5.8
2017-Dec-01 20:28S 37°54' E 144°56'511.1
2017-Dec-01 20:00S 37°59' E 144°55'  

Dump ship's entire track history